Time;durP1;ratioP1;P1;durP2;ratioP2;P2;SDS_P1;SDS_P2;PMS_P1;PMS_P2;Temp;Humidity;BMP_temperature;BMP_pressure;BME280_temperature;BME280_humidity;BME280_pressure;Samples;Min_cycle;Max_cycle;Signal;HPM_P1;HPM_P2
2022/07/29 00:09:17;;;;;;;;;;;;;;;;;;21172949;28;19930;-62
2022/07/29 00:19:19;;;;;;;;;;;;;;;;;;21172401;28;19927;-59
2022/07/29 00:29:20;;;;;;;;;;;;;;;;;;21171110;28;20372;-60
2022/07/29 00:39:22;;;;;;;;;;;;;;;;;;21170911;28;19931;-57
2022/07/29 00:49:23;;;;;;;;;;;;;;;;;;21169645;28;20417;-59
2022/07/29 00:59:25;;;;;;;;;;;;;;;;;;21168460;28;20383;-53
2022/07/29 01:09:27;;;;;;;;;;;;;;;;;;21168344;28;20368;-59
2022/07/29 01:19:29;;;;;;;;;;;;;;;;;;21166973;28;19927;-63
2022/07/29 01:29:31;;;;;;;;;;;;;;;;;;21166270;28;19924;-61
2022/07/29 01:39:35;;;;;;;;;;;;;;;;;;21166134;28;19923;-63
2022/07/29 01:49:38;;;;;;;;;;;;;;;;;;21165394;28;19935;-64
2022/07/29 01:59:43;;;;;;;;;;;;;;;;;;21165156;28;20368;-60
2022/07/29 02:09:49;;;;;;;;;;;;;;;;;;21162480;28;19924;-64
2022/07/29 02:19:56;;;;;;;;;;;;;;;;;;21163518;28;20437;-57
2022/07/29 02:30:00;;;;;;;;;;;;;;;;;;21162984;28;19977;-60
2022/07/29 02:40:03;;;;;;;;;;;;;;;;;;21162643;28;20376;-55
2022/07/29 02:50:08;;;;;;;;;;;;;;;;;;21166077;28;19959;-60
2022/07/29 03:00:10;;;;;;;;;;;;;;;;;;21178677;28;19977;-56
2022/07/29 03:10:12;;;;;;;;;;;;;;;;;;21177056;28;19975;-57
2022/07/29 03:20:14;;;;;;;;;;;;;;;;;;21176632;28;19923;-53
2022/07/29 03:30:17;;;;;;;;;;;;;;;;;;21174993;28;19985;-57
2022/07/29 03:40:19;;;;;;;;;;;;;;;;;;21176046;28;20014;-60
2022/07/29 03:50:21;;;;;;;;;;;;;;;;;;21174850;28;19924;-60
2022/07/29 04:00:23;;;;;;;;;;;;;;;;;;21174338;28;19924;-53
2022/07/29 04:10:25;;;;;;;;;;;;;;;;;;21173919;28;19931;-53
2022/07/29 04:20:27;;;;;;;;;;;;;;;;;;21174005;28;20325;-63
2022/07/29 04:30:29;;;;;;;;;;;;;;;;;;21174041;28;20014;-54
2022/07/29 04:40:32;;;;;;;;;;;;;;;;;;21171723;28;19923;-55
2022/07/29 04:50:36;;;;;;;;;;;;;;;;;;21170845;28;19930;-58
2022/07/29 05:00:38;;;;;;;;;;;;;;;;;;21169155;28;20023;-57
2022/07/29 05:10:40;;;;;;;;;;;;;;;;;;21167851;28;19981;-58
2022/07/29 05:20:41;;;;;;;;;;;;;;;;;;21166626;28;20028;-59
2022/07/29 05:30:44;;;;;;;;;;;;;;;;;;21167478;28;19924;-63
2022/07/29 05:40:46;;;;;;;;;;;;;;;;;;21165766;28;19924;-53
2022/07/29 05:50:47;;;;;;;;;;;;;;;;;;21166380;28;20372;-56
2022/07/29 06:00:49;;;;;;;;;;;;;;;;;;21164461;28;19972;-55
2022/07/29 06:10:51;;;;;;;;;;;;;;;;;;21164130;28;19931;-53
2022/07/29 06:20:53;;;;;;;;;;;;;;;;;;21162114;28;20268;-53
2022/07/29 06:30:54;;;;;;;;;;;;;;;;;;21176924;28;19923;-53
2022/07/29 06:40:59;;;;;;;;;;;;;;;;;;21179810;28;19931;-57
2022/07/29 06:51:01;;;;;;;;;;;;;;;;;;21179067;28;19924;-59
2022/07/29 07:01:03;;;;;;;;;;;;;;;;;;21179785;28;19924;-56
2022/07/29 07:11:06;;;;;;;;;;;;;;;;;;21177360;28;19923;-53
2022/07/29 07:21:08;;;;;;;;;;;;;;;;;;21176441;28;20311;-53
2022/07/29 07:31:10;;;;;;;;;;;;;;;;;;21178828;28;20425;-53
2022/07/29 07:41:12;;;;;;;;;;;;;;;;;;21174809;28;20026;-54
2022/07/29 07:51:15;;;;;;;;;;;;;;;;;;21174659;28;19924;-58
2022/07/29 08:01:18;;;;;;;;;;;;;;;;;;21175010;28;19924;-64
2022/07/29 08:11:21;;;;;;;;;;;;;;;;;;21172648;28;19924;-60
2022/07/29 08:21:22;;;;;;;;;;;;;;;;;;21171816;28;19924;-65
2022/07/29 08:31:24;;;;;;;;;;;;;;;;;;21170664;28;20015;-53
2022/07/29 08:41:26;;;;;;;;;;;;;;;;;;21171269;28;19974;-59
2022/07/29 08:51:27;;;;;;;;;;;;;;;;;;21170514;28;19924;-64
2022/07/29 09:01:30;;;;;;;;;;;;;;;;;;21169257;28;19928;-55
2022/07/29 09:11:32;;;;;;;;;;;;;;;;;;21168555;27;20021;-59
2022/07/29 09:31:53;;;;;;;;;;;;;;;;;;21165866;28;20284;-55
2022/07/29 09:41:56;;;;;;;;;;;;;;;;;;21166319;28;20040;-54
2022/07/29 09:51:58;;;;;;;;;;;;;;;;;;21165521;28;20006;-53
2022/07/29 10:02:01;;;;;;;;;;;;;;;;;;21164695;28;20000;-60
2022/07/29 10:12:03;;;;;;;;;;;;;;;;;;21163601;28;19924;-56
2022/07/29 10:22:08;;;;;;;;;;;;;;;;;;21162070;28;20201;-54
2022/07/29 10:32:10;;;;;;;;;;;;;;;;;;21162603;28;19927;-62
2022/07/29 10:42:12;;;;;;;;;;;;;;;;;;21163389;28;19924;-59
2022/07/29 10:52:14;;;;;;;;;;;;;;;;;;21164192;28;19946;-53
2022/07/29 11:02:16;;;;;;;;;;;;;;;;;;21164104;28;20015;-56
2022/07/29 11:12:20;;;;;;;;;;;;;;;;;;21169716;28;19953;-54
2022/07/29 11:22:22;;;;;;;;;;;;;;;;;;21182329;28;20026;-60
2022/07/29 11:32:24;;;;;;;;;;;;;;;;;;21178633;28;20337;-54
2022/07/29 11:42:26;;;;;;;;;;;;;;;;;;21177502;28;19927;-61
2022/07/29 11:52:28;;;;;;;;;;;;;;;;;;21175588;28;19979;-60
2022/07/29 12:02:29;;;;;;;;;;;;;;;;;;21173195;28;19931;-53
2022/07/29 12:12:31;;;;;;;;;;;;;;;;;;21173384;28;19923;-52
2022/07/29 12:22:34;;;;;;;;;;;;;;;;;;21177185;28;20021;-60
2022/07/29 12:32:35;;;;;;;;;;;;;;;;;;21170848;28;19930;-54
2022/07/29 12:42:37;;;;;;;;;;;;;;;;;;21171288;28;20430;-60
2022/07/29 12:52:39;;;;;;;;;;;;;;;;;;21169350;28;19924;-66
2022/07/29 13:02:41;;;;;;;;;;;;;;;;;;21169802;28;20374;-57
2022/07/29 13:12:42;;;;;;;;;;;;;;;;;;21165560;28;19952;-56
2022/07/29 13:22:44;;;;;;;;;;;;;;;;;;21166346;28;19924;-60
2022/07/29 13:32:47;;;;;;;;;;;;;;;;;;21166387;28;19952;-59
2022/07/29 13:42:50;;;;;;;;;;;;;;;;;;21165546;28;19935;-60
2022/07/29 13:52:51;;;;;;;;;;;;;;;;;;21165721;28;19924;-59
2022/07/29 14:02:53;;;;;;;;;;;;;;;;;;21165030;28;19924;-59
2022/07/29 14:12:55;;;;;;;;;;;;;;;;;;21162735;28;19924;-55
2022/07/29 14:22:57;;;;;;;;;;;;;;;;;;21163066;28;19941;-54
2022/07/29 14:32:58;;;;;;;;;;;;;;;;;;21163861;28;19988;-58
2022/07/29 14:43:01;;;;;;;;;;;;;;;;;;21163447;28;19924;-56
2022/07/29 14:53:03;;;;;;;;;;;;;;;;;;21178365;28;19924;-55
2022/07/29 15:03:05;;;;;;;;;;;;;;;;;;21178253;28;20010;-58
2022/07/29 15:13:07;;;;;;;;;;;;;;;;;;21177065;28;20005;-55
2022/07/29 15:23:09;;;;;;;;;;;;;;;;;;21178224;28;20014;-55
2022/07/29 15:33:11;;;;;;;;;;;;;;;;;;21175993;28;20005;-63
2022/07/29 15:43:12;;;;;;;;;;;;;;;;;;21176145;28;19923;-57
2022/07/29 15:53:14;;;;;;;;;;;;;;;;;;21175378;28;19923;-67
2022/07/29 16:03:16;;;;;;;;;;;;;;;;;;21176922;28;19924;-61
2022/07/29 16:13:17;;;;;;;;;;;;;;;;;;21173683;28;20424;-55
2022/07/29 16:23:19;;;;;;;;;;;;;;;;;;21174346;27;19934;-60
2022/07/29 16:33:21;;;;;;;;;;;;;;;;;;21173375;28;19924;-56
2022/07/29 16:43:41;;;;;;;;;;;;;;;;;;21173090;28;19912;-52
2022/07/29 16:53:43;;;;;;;;;;;;;;;;;;21170078;28;19931;-55
2022/07/29 17:14:06;;;;;;;;;;;;;;;;;;21166457;28;19924;-56
2022/07/29 17:24:08;;;;;;;;;;;;;;;;;;21168201;28;19930;-54
2022/07/29 17:34:09;;;;;;;;;;;;;;;;;;21166770;28;20030;-54
2022/07/29 17:44:11;;;;;;;;;;;;;;;;;;21165590;28;19970;-54
2022/07/29 17:54:12;;;;;;;;;;;;;;;;;;21165331;27;19984;-55
2022/07/29 18:04:18;;;;;;;;;;;;;;;;;;21165143;28;20035;-55
2022/07/29 18:14:20;;;;;;;;;;;;;;;;;;21163821;28;19963;-55
2022/07/29 18:24:24;;;;;;;;;;;;;;;;;;21165214;28;19953;-55
2022/07/29 18:34:26;;;;;;;;;;;;;;;;;;21167512;28;19924;-61
2022/07/29 18:44:27;;;;;;;;;;;;;;;;;;21166635;28;19924;-57
2022/07/29 18:54:30;;;;;;;;;;;;;;;;;;21162939;28;19931;-62
2022/07/29 19:04:51;;;;;;;;;;;;;;;;;;21162891;28;19930;-61
2022/07/29 19:14:53;;;;;;;;;;;;;;;;;;21160882;28;19928;-57
2022/07/29 19:24:55;;;;;;;;;;;;;;;;;;21162122;28;20264;-58
2022/07/29 19:45:16;;;;;;;;;;;;;;;;;;21177337;28;19930;-55
2022/07/29 19:55:18;;;;;;;;;;;;;;;;;;21178060;28;19974;-55
2022/07/29 20:05:20;;;;;;;;;;;;;;;;;;21176270;28;19954;-54
2022/07/29 20:15:22;;;;;;;;;;;;;;;;;;21172519;28;20395;-57
2022/07/29 20:25:23;;;;;;;;;;;;;;;;;;21172798;28;19923;-55
2022/07/29 20:35:26;;;;;;;;;;;;;;;;;;21171900;28;19924;-58
2022/07/29 20:45:28;;;;;;;;;;;;;;;;;;21170101;28;19931;-59
2022/07/29 20:55:30;;;;;;;;;;;;;;;;;;21170138;28;19935;-54
2022/07/29 21:05:32;;;;;;;;;;;;;;;;;;21171729;28;19949;-61
2022/07/29 21:15:34;;;;;;;;;;;;;;;;;;21167377;28;19971;-56
2022/07/29 21:25:36;;;;;;;;;;;;;;;;;;21167335;28;19931;-56
2022/07/29 21:35:37;;;;;;;;;;;;;;;;;;21166351;28;19924;-62
2022/07/29 21:45:39;;;;;;;;;;;;;;;;;;21166118;28;19927;-54
2022/07/29 21:55:41;;;;;;;;;;;;;;;;;;21165283;28;19924;-54
2022/07/29 22:05:43;;;;;;;;;;;;;;;;;;21164316;28;19946;-55
2022/07/29 22:15:45;;;;;;;;;;;;;;;;;;21161931;28;19930;-58
2022/07/29 22:25:48;;;;;;;;;;;;;;;;;;21163657;28;19928;-63
2022/07/29 22:35:49;;;;;;;;;;;;;;;;;;21163978;28;20431;-63
2022/07/29 22:45:51;;;;;;;;;;;;;;;;;;21163055;28;19931;-66
2022/07/29 22:55:53;;;;;;;;;;;;;;;;;;21163189;28;19993;-66
2022/07/29 23:05:55;;;;;;;;;;;;;;;;;;21162549;28;19977;-58
2022/07/29 23:15:56;;;;;;;;;;;;;;;;;;21177249;28;19977;-64
2022/07/29 23:25:58;;;;;;;;;;;;;;;;;;21177063;28;19924;-55
2022/07/29 23:36:00;;;;;;;;;;;;;;;;;;21176330;28;20444;-66
2022/07/29 23:46:02;;;;;;;;;;;;;;;;;;21176572;28;19924;-60
2022/07/29 23:56:04;;;;;;;;;;;;;;;;;;21175641;28;20368;-62
